This is the latest recevied weather packets stored in our database for station/object IT9IJI-15. If no packets are shown the sender has not sent any weather packets the latest 10 day(s).
| Time | Temp. | Humidity | Pressure | Rain* | Wind** | Luminosity | Snow |
|---|---|---|---|---|---|---|---|
| 1777287083 | 27.78° C | 34% | 894.8 hPa | - | - | - | - |
| 1777286194 | 27.78° C | 35% | 894.7 hPa | - | - | - | - |
| 1777286183 | 27.78° C | 35% | 894.7 hPa | - | - | - | - |
| 1777285283 | 20.56° C | 35% | 887.4 hPa | - | - | - | - |
| 1777284359 | 27.78° C | 35% | 895 hPa | - | - | - | - |
| 1777283459 | 27.78° C | 35% | 895 hPa | - | - | - | - |
| 1777282801 | 27.78° C | 35% | 895 hPa | - | - | - | - |
| 1777282559 | 27.78° C | 35% | 895 hPa | - | - | - | - |
| 1777281659 | 27.78° C | 35% | 895.1 hPa | - | - | - | - |
| 1777280759 | 27.78° C | 35% | 895.1 hPa | - | - | - | - |
| 1777279859 | 27.22° C | 36% | 895.2 hPa | - | - | - | - |
| 1777278959 | 27.22° C | 37% | 895.2 hPa | - | - | - | - |
| 1777278059 | 26.11° C | 41% | 895.2 hPa | - | - | - | - |
| 1777278059 | 26.11° C | 41% | 895.2 hPa | - | - | - | - |
| 1777277159 | 20° C | 53% | 895.1 hPa | - | - | - | - |
| 1777224263 | 26.67° C | 34% | 893.1 hPa | - | - | - | - |
| 1777224036 | 26.67° C | 34% | 893.1 hPa | - | - | - | - |
| 1777223136 | 26.67° C | 33% | 893.1 hPa | - | - | - | - |
| 1777222236 | 27.22° C | 33% | 897.9 hPa | - | - | - | - |
| 1777221338 | 27.22° C | 33% | 893.2 hPa | - | - | - | - |
| 1777220435 | 27.22° C | 33% | 893.3 hPa | - | - | - | - |
| 1777219535 | 27.22° C | 33% | 893.3 hPa | - | - | - | - |
| 1777218635 | 27.22° C | 33% | 893.2 hPa | - | - | - | - |
| 1777217735 | 27.78° C | 33% | 893.3 hPa | - | - | - | - |
| 1777216835 | 27.22° C | 33% | 893.5 hPa | - | - | - | - |
* Rain since midnight (hover to see other rain measurements)
** Current wind speed in m/s (hover to see current wind gust speed)